CYEN

Estevan Airport

Estevan, Saskatchewan, Canada
METAR CYEN 210900Z 32005KT 15SM SCT075 OVC250 14/10 A3001 RMK AC3CI5 SLP163 DENSITY ALT 2200FT
Observed Flight Rules
Jun-21 @ 09:00 UTC (an hour ago) Visual Flight Rules
Wind Visibility Clouds
320° at 5 knots 15 miles
  • Scattered at 7,500' AGL
  • Overcast at 25,000' AGL
Temperatures Readings
Current 14°C / 57°F
Dewpoint 10°C / 50°F
Humidity 77%
Altimeter 30.01" Hg
Pressure 1016.3 hPa
Elevation 581
METAR CYEN 210900Z 32005KT 15SM SCT075 OVC250 14/10 A3001 RMK AC3CI5 SLP163 DENSITY ALT 2200FT
Observed Flight Rules
Jun-21 @ 09:00 UTC
(an hour ago)
VFR
Wind Visibility
320° at 5 knots 15 miles
Clouds
  • Scattered at 7,500' AGL
  • Overcast at 25,000' AGL
Temperature Dewpoint
14°C / 57°F 10°C / 50°F
Humidity Altimeter Pressure
77% 30.01" Hg 1016.3 hPa